Time;durP1;ratioP1;P1;durP2;ratioP2;P2;SDS_P1;SDS_P2;PMS_P1;PMS_P2;Temp;Humidity;BMP_temperature;BMP_pressure;BME280_temperature;BME280_humidity;BME280_pressure;Samples;Min_cycle;Max_cycle;Signal;HPM_P1;HPM_P2
2023/05/15 00:02:13;;;;;;;30.50;19.63;;;;;;;11.21;51.79;101413.72;5080352;27;20035;-72
2023/05/15 00:04:39;;;;;;;29.85;19.70;;;;;;;11.16;51.52;101410.41;5081313;27;20304;-72
2023/05/15 00:07:05;;;;;;;31.98;20.52;;;;;;;11.12;51.72;101413.19;5087185;27;20028;-71
2023/05/15 00:09:30;;;;;;;28.38;19.30;;;;;;;11.12;52.22;101408.78;5080378;27;20129;-71
2023/05/15 00:11:56;;;;;;;29.90;19.83;;;;;;;11.14;51.61;101403.53;5083899;27;20084;-72
2023/05/15 00:14:21;;;;;;;28.70;19.55;;;;;;;11.15;51.31;101399.97;5085590;27;20031;-72
2023/05/15 00:16:47;;;;;;;26.42;18.42;;;;;;;11.13;51.66;101400.06;5086449;27;20666;-70
2023/05/15 00:19:13;;;;;;;29.60;19.40;;;;;;;11.05;51.76;101396.84;5065668;28;20507;-71
2023/05/15 00:21:38;;;;;;;34.08;21.27;;;;;;;11.08;51.96;101396.72;5085546;27;20077;-71
2023/05/15 00:24:04;;;;;;;28.42;18.92;;;;;;;11.03;52.06;101396.88;5070808;28;20759;-72
2023/05/15 00:26:29;;;;;;;28.80;20.70;;;;;;;10.92;52.36;101385.06;5083417;27;20322;-72
2023/05/15 00:28:55;;;;;;;29.85;20.25;;;;;;;10.95;52.60;101385.84;5085523;27;20570;-71
2023/05/15 00:31:22;;;;;;;27.35;19.88;;;;;;;10.88;52.54;101381.69;5084148;27;20111;-71
2023/05/15 00:33:48;;;;;;;29.33;19.50;;;;;;;10.77;52.66;101383.78;5068654;28;20102;-70
2023/05/15 00:36:13;;;;;;;36.10;21.70;;;;;;;10.86;52.63;101380.03;5085538;28;20055;-70
2023/05/15 00:38:39;;;;;;;31.00;21.52;;;;;;;10.84;52.62;101393.19;5083674;27;20056;-71
2023/05/15 00:41:06;;;;;;;30.40;20.10;;;;;;;10.75;53.08;101385.59;5086314;27;20496;-71
2023/05/15 00:43:32;;;;;;;29.27;20.17;;;;;;;10.83;52.86;101386.22;5080387;27;20717;-71
2023/05/15 00:45:58;;;;;;;34.25;21.55;;;;;;;10.89;52.48;101372.09;5081066;27;20032;-70
2023/05/15 00:48:26;;;;;;;29.70;21.27;;;;;;;10.88;52.73;101379.06;5086259;27;20032;-71
2023/05/15 00:50:52;;;;;;;27.45;19.45;;;;;;;10.95;52.25;101375.38;5081894;27;20028;-71
2023/05/15 00:53:18;;;;;;;29.20;20.52;;;;;;;10.87;52.48;101374.78;5078677;27;20493;-70
2023/05/15 00:55:45;;;;;;;32.85;20.10;;;;;;;10.79;52.66;101364.53;5083399;28;20044;-71
2023/05/15 00:58:13;;;;;;;36.22;20.90;;;;;;;10.71;53.10;101363.09;5081928;28;20126;-71
2023/05/15 01:00:41;;;;;;;29.65;20.05;;;;;;;10.74;53.11;101366.44;5080381;27;20035;-71
2023/05/15 01:03:06;;;;;;;34.50;19.85;;;;;;;10.66;53.48;101364.97;5071788;28;20035;-72
2023/05/15 01:05:32;;;;;;;29.02;18.20;;;;;;;10.66;53.74;101370.19;5078996;28;20515;-72
2023/05/15 01:08:22;;;;;;;29.75;18.65;;;;;;;10.64;53.32;101359.81;5101175;27;20562;-71
2023/05/15 01:10:50;;;;;;;27.55;19.05;;;;;;;10.55;53.70;101363.56;5080788;27;20462;-71
2023/05/15 01:13:20;;;;;;;29.17;19.83;;;;;;;10.20;55.06;101378.59;5080399;27;20057;-71
2023/05/15 01:15:46;;;;;;;31.92;20.80;;;;;;;9.99;55.59;101371.38;5081854;27;20039;-69
2023/05/15 01:18:11;;;;;;;29.20;18.73;;;;;;;10.14;54.97;101364.84;5081332;27;20047;-70
2023/05/15 01:21:08;;;;;;;38.78;19.98;;;;;;;9.94;55.48;101374.13;5076311;28;20096;-70
2023/05/15 01:23:50;;;;;;;34.80;21.38;;;;;;;10.08;55.22;101368.53;5079087;27;21939;-70
2023/05/15 01:26:16;;;;;;;;;;;;;;;9.96;55.61;101371.47;5081942;28;20073;-70
2023/05/15 01:28:47;;;;;;;33.88;20.92;;;;;;;10.02;55.36;101376.53;5083997;28;19969;-69
2023/05/15 01:31:21;;;;;;;40.47;21.70;;;;;;;9.82;55.72;101378.88;5080389;28;20059;-70
2023/05/15 01:33:53;;;;;;;35.05;22.80;;;;;;;9.64;56.62;101380.22;5079054;27;20039;-70
2023/05/15 01:36:26;;;;;;;37.30;22.45;;;;;;;9.79;55.93;101359.78;5084538;28;20092;-70
2023/05/15 01:38:54;;;;;;;37.38;22.88;;;;;;;9.65;56.53;101368.88;5079107;28;20040;-69
2023/05/15 01:41:30;;;;;;;37.05;21.08;;;;;;;9.63;56.14;101374.13;5096173;27;20476;-69
2023/05/15 01:44:10;;;;;;;37.20;20.83;;;;;;;9.69;55.81;101378.34;5056443;28;20588;-71
2023/05/15 01:46:39;;;;;;;34.00;21.02;;;;;;;9.65;56.07;101377.56;5082165;28;20031;-71
2023/05/15 01:49:07;;;;;;;31.70;19.50;;;;;;;9.38;56.89;101372.19;5096295;27;20508;-70
2023/05/15 01:51:33;;;;;;;34.08;21.35;;;;;;;9.45;56.86;101369.41;5080736;28;20031;-70
2023/05/15 01:53:59;;;;;;;34.67;19.63;;;;;;;9.25;57.63;101367.34;5097940;27;20415;-69
2023/05/15 01:56:26;;;;;;;38.92;19.67;;;;;;;8.97;58.16;101373.28;5083893;28;20036;-70
2023/05/15 01:58:54;;;;;;;34.33;19.45;;;;;;;8.69;58.77;101375.69;5081914;28;20691;-70
2023/05/15 02:01:20;;;;;;;32.90;18.50;;;;;;;8.70;59.04;101369.59;5068000;28;20036;-68
2023/05/15 02:03:46;;;;;;;41.70;19.20;;;;;;;8.80;58.42;101372.84;5079385;28;20050;-70
2023/05/15 02:06:13;;;;;;;39.63;16.50;;;;;;;8.90;58.28;101372.59;5083679;28;20404;-70
2023/05/15 02:08:40;;;;;;;44.42;16.63;;;;;;;8.97;57.97;101384.56;5065461;28;20812;-69
2023/05/15 02:11:06;;;;;;;36.65;18.00;;;;;;;8.88;58.36;101387.41;5086578;28;20392;-72
2023/05/15 02:13:34;;;;;;;32.58;15.00;;;;;;;8.49;59.49;101392.63;5083679;28;20500;-69
2023/05/15 02:16:00;;;;;;;29.02;12.70;;;;;;;8.58;58.37;101396.78;5080649;28;20104;-70
2023/05/15 02:18:27;;;;;;;24.42;11.30;;;;;;;8.19;59.35;101396.78;5070004;28;20044;-70
2023/05/15 02:20:53;;;;;;;23.75;12.40;;;;;;;8.42;58.88;101395.44;5066214;28;20042;-69
2023/05/15 02:23:20;;;;;;;25.77;11.48;;;;;;;8.38;59.33;101388.56;5080462;28;20048;-71
2023/05/15 02:26:11;;;;;;;26.40;11.40;;;;;;;8.80;58.29;101391.09;5075708;28;20661;-70
2023/05/15 02:28:53;;;;;;;29.05;11.32;;;;;;;8.71;58.30;101392.16;5084441;28;20055;-70
2023/05/15 02:31:34;;;;;;;31.23;12.48;;;;;;;8.85;58.21;101391.84;5067716;28;20042;-69
2023/05/15 02:34:38;;;;;;;29.58;14.05;;;;;;;8.89;57.73;101389.09;5093122;27;20043;-69
2023/05/15 02:37:09;;;;;;;32.92;13.43;;;;;;;8.93;57.84;101384.69;5062942;28;20109;-70
2023/05/15 02:39:37;;;;;;;33.88;14.45;;;;;;;9.06;57.25;101390.47;5076687;28;20028;-69
2023/05/15 02:42:05;;;;;;;26.55;12.82;;;;;;;8.80;57.61;101389.34;5080787;28;20107;-70
2023/05/15 02:44:33;;;;;;;22.00;10.50;;;;;;;8.49;58.48;101397.00;5079379;28;20027;-69
2023/05/15 02:47:00;;;;;;;25.10;11.73;;;;;;;8.70;57.74;101395.66;5079091;28;20032;-70
2023/05/15 02:49:25;;;;;;;26.35;12.18;;;;;;;8.69;57.54;101396.53;5081200;28;20036;-71
2023/05/15 02:51:51;;;;;;;22.92;11.27;;;;;;;8.74;58.11;101394.72;5071192;28;20047;-69
2023/05/15 02:54:17;;;;;;;27.33;12.15;;;;;;;8.66;57.63;101386.19;5070529;28;20107;-69
2023/05/15 02:56:43;;;;;;;24.08;11.35;;;;;;;8.24;58.70;101378.47;5099756;27;20164;-71
2023/05/15 02:59:08;;;;;;;23.45;10.45;;;;;;;8.21;58.46;101374.19;5084624;27;20028;-69
2023/05/15 03:01:34;;;;;;;23.95;12.15;;;;;;;8.39;57.62;101380.72;5080918;27;22560;-71
2023/05/15 03:03:59;;;;;;;24.33;12.93;;;;;;;8.46;57.96;101374.47;5082754;27;20122;-70
2023/05/15 03:06:25;;;;;;;29.90;12.30;;;;;;;8.42;57.62;101375.44;5089102;27;20059;-70
2023/05/15 03:08:50;;;;;;;29.52;13.15;;;;;;;8.32;58.27;101381.75;5095825;27;20472;-70
2023/05/15 03:11:18;;;;;;;30.88;13.57;;;;;;;8.43;57.38;101377.16;5085084;27;20027;-69
2023/05/15 03:13:43;;;;;;;32.20;12.93;;;;;;;8.64;57.57;101375.78;5081604;27;20075;-71
2023/05/15 03:16:09;;;;;;;30.50;12.57;;;;;;;8.58;57.43;101370.72;5101913;27;20035;-68
2023/05/15 03:18:34;;;;;;;28.70;12.43;;;;;;;8.66;57.13;101371.41;5082240;27;20040;-70
2023/05/15 03:20:59;;;;;;;31.10;11.80;;;;;;;8.70;57.17;101365.22;5066650;28;20778;-68
2023/05/15 03:23:25;;;;;;;29.73;13.45;;;;;;;8.92;56.88;101365.59;5083779;27;20120;-70
2023/05/15 03:25:50;;;;;;;37.38;12.85;;;;;;;8.73;56.65;101364.31;5085064;27;20389;-70
2023/05/15 03:28:16;;;;;;;27.95;13.00;;;;;;;8.59;57.39;101361.19;5085510;27;20705;-69
2023/05/15 03:30:44;;;;;;;27.52;12.32;;;;;;;8.59;57.66;101361.19;5084196;28;20805;-70
2023/05/15 03:33:10;;;;;;;25.95;10.65;;;;;;;8.34;57.59;101372.16;5087429;27;20099;-70
2023/05/15 03:35:35;;;;;;;29.60;11.70;;;;;;;8.45;57.02;101364.97;5082595;27;20525;-70
2023/05/15 03:38:03;;;;;;;21.67;10.02;;;;;;;8.35;57.64;101363.44;5087630;27;20067;-69
2023/05/15 03:40:28;;;;;;;26.33;11.20;;;;;;;8.55;56.75;101365.59;5086256;27;20331;-70
2023/05/15 03:42:54;;;;;;;25.10;11.65;;;;;;;8.53;56.99;101362.16;5060023;28;20036;-70
2023/05/15 03:45:20;;;;;;;22.23;10.95;;;;;;;8.44;57.09;101365.84;5082060;27;20075;-69
2023/05/15 03:47:47;;;;;;;23.55;9.98;;;;;;;8.27;57.20;101367.97;5070347;28;20032;-70
2023/05/15 03:50:13;;;;;;;26.15;11.88;;;;;;;7.85;58.17;101362.81;5085071;28;20940;-70
2023/05/15 03:52:38;;;;;;;21.83;10.68;;;;;;;8.12;57.92;101367.44;5084090;27;20066;-70
2023/05/15 03:55:04;;;;;;;18.25;10.02;;;;;;;8.15;57.89;101369.94;5082210;27;20111;-68
2023/05/15 03:57:32;;;;;;;20.02;10.85;;;;;;;7.95;57.86;101359.13;5080382;27;20054;-69
2023/05/15 03:59:57;;;;;;;21.77;11.10;;;;;;;7.88;58.20;101358.38;5081216;27;20055;-70
2023/05/15 04:02:23;;;;;;;23.05;9.52;;;;;;;8.07;57.97;101368.41;5076213;27;20127;-70
2023/05/15 04:04:48;;;;;;;23.40;11.13;;;;;;;8.12;57.82;101359.63;5081675;27;20478;-69
2023/05/15 04:07:14;;;;;;;20.48;10.00;;;;;;;8.32;57.32;101366.13;5082729;27;20038;-68
2023/05/15 04:09:40;;;;;;;23.48;11.18;;;;;;;8.17;57.27;101362.13;5082532;27;20055;-70
2023/05/15 04:12:05;;;;;;;29.17;11.48;;;;;;;8.15;57.63;101364.75;5081502;27;20050;-69
2023/05/15 04:14:31;;;;;;;22.23;11.95;;;;;;;8.02;58.32;101355.47;5081968;27;20075;-70
2023/05/15 04:16:56;;;;;;;22.77;10.00;;;;;;;8.20;57.46;101363.78;5080761;28;20136;-73
2023/05/15 04:19:21;;;;;;;24.42;12.00;;;;;;;8.41;57.39;101358.09;5084408;28;20456;-69
2023/05/15 04:21:47;;;;;;;23.48;11.32;;;;;;;8.58;56.89;101362.91;5084690;28;20119;-69
2023/05/15 04:24:12;;;;;;;23.55;10.95;;;;;;;8.28;57.50;101351.47;5080583;28;20035;-69
2023/05/15 04:26:38;;;;;;;20.60;11.05;;;;;;;8.39;57.09;101365.09;5086702;27;20039;-70
2023/05/15 04:29:03;;;;;;;25.42;11.07;;;;;;;8.45;57.27;101367.56;5085938;28;20056;-69
2023/05/15 04:31:30;;;;;;;21.67;10.32;;;;;;;8.48;57.34;101364.88;5086621;27;20265;-70
2023/05/15 04:33:55;;;;;;;21.77;11.70;;;;;;;8.42;56.98;101365.00;5079350;27;20405;-70
2023/05/15 04:36:21;;;;;;;24.10;11.93;;;;;;;8.10;58.15;101364.00;5083855;27;20043;-71
2023/05/15 04:38:47;;;;;;;24.42;10.85;;;;;;;8.07;58.03;101364.06;5082905;27;20032;-70
2023/05/15 04:41:12;;;;;;;23.27;12.90;;;;;;;8.15;57.70;101359.53;5085110;27;20032;-70
2023/05/15 04:43:37;;;;;;;23.50;12.02;;;;;;;8.20;58.73;101363.78;5083910;27;20497;-69
2023/05/15 04:46:03;;;;;;;26.15;12.98;;;;;;;8.27;58.22;101363.63;5079561;27;20028;-69
2023/05/15 04:48:29;;;;;;;25.98;12.07;;;;;;;8.61;57.00;101362.00;5079497;27;20078;-70
2023/05/15 04:50:54;;;;;;;28.73;13.65;;;;;;;8.63;57.50;101360.19;5081351;28;20042;-69
2023/05/15 04:53:20;;;;;;;36.17;14.13;;;;;;;8.85;57.18;101356.22;5083261;27;20081;-70
2023/05/15 04:55:46;;;;;;;28.30;12.57;;;;;;;8.75;57.10;101359.94;5082167;27;20042;-70
2023/05/15 04:58:11;;;;;;;33.67;14.55;;;;;;;8.79;56.37;101358.97;5080695;28;20039;-69
2023/05/15 05:00:36;;;;;;;30.38;13.85;;;;;;;8.72;56.11;101357.41;5082411;27;20024;-70
2023/05/15 05:03:03;;;;;;;30.67;13.55;;;;;;;8.79;56.14;101358.97;5078647;27;20039;-70
2023/05/15 05:05:29;;;;;;;29.55;13.25;;;;;;;8.89;56.23;101351.75;5081328;27;20032;-70
2023/05/15 05:07:54;;;;;;;29.50;14.18;;;;;;;8.67;56.53;101364.44;5082029;27;20039;-69
2023/05/15 05:10:20;;;;;;;32.55;15.38;;;;;;;8.36;56.73;101366.03;5069581;28;20489;-69
2023/05/15 05:12:45;;;;;;;33.78;14.65;;;;;;;8.76;56.14;101354.69;5081196;27;20043;-69
2023/05/15 05:15:11;;;;;;;31.85;14.95;;;;;;;8.87;55.60;101362.22;5081223;27;20062;-69
2023/05/15 05:17:36;;;;;;;32.85;14.65;;;;;;;8.46;56.86;101355.38;5076957;28;20341;-70
2023/05/15 05:20:03;;;;;;;37.75;16.63;;;;;;;8.42;57.25;101359.81;5077787;28;20027;-69
2023/05/15 05:22:29;;;;;;;32.80;16.55;;;;;;;8.78;56.83;101365.06;5079174;28;20402;-70
2023/05/15 05:24:55;;;;;;;34.20;14.98;;;;;;;8.67;56.47;101354.00;5093220;27;20046;-68
2023/05/15 05:27:20;;;;;;;40.25;16.15;;;;;;;9.06;55.30;101361.78;5083559;28;20055;-69
2023/05/15 05:29:46;;;;;;;39.33;16.20;;;;;;;9.19;55.12;101357.94;5068962;28;20598;-70
2023/05/15 05:32:11;;;;;;;33.28;14.85;;;;;;;9.39;55.34;101363.47;5078134;27;20047;-70
2023/05/15 05:34:37;;;;;;;34.38;15.02;;;;;;;8.98;55.05;101355.00;5078559;28;20135;-70
2023/05/15 05:37:02;;;;;;;39.60;15.93;;;;;;;9.09;54.60;101351.25;5085662;27;20055;-70
2023/05/15 05:39:28;;;;;;;33.30;14.88;;;;;;;9.05;55.02;101349.63;5080344;28;20035;-70
2023/05/15 05:41:53;;;;;;;29.25;14.57;;;;;;;8.87;55.32;101351.78;5076728;28;20388;-70
2023/05/15 05:44:18;;;;;;;34.75;15.93;;;;;;;8.95;56.01;101352.47;5078861;27;20523;-69
2023/05/15 05:46:44;;;;;;;32.85;15.70;;;;;;;9.10;55.21;101348.63;5080235;28;20637;-70
2023/05/15 05:49:10;;;;;;;34.35;14.95;;;;;;;9.24;54.70;101356.06;5080455;28;20085;-70
2023/05/15 05:51:35;;;;;;;35.25;16.27;;;;;;;9.32;54.46;101359.34;5081455;28;20404;-70
2023/05/15 05:54:01;;;;;;;35.80;14.82;;;;;;;9.44;54.46;101359.91;5079087;28;20572;-69
2023/05/15 05:56:27;;;;;;;28.40;13.88;;;;;;;9.76;53.42;101357.22;5087243;28;20134;-69
2023/05/15 05:58:53;;;;;;;27.90;14.70;;;;;;;9.47;53.46;101363.25;5080110;28;20540;-70
2023/05/15 06:01:19;;;;;;;27.95;13.90;;;;;;;9.54;53.56;101372.66;5078308;28;20036;-69
2023/05/15 06:03:45;;;;;;;29.80;15.57;;;;;;;9.44;53.72;101367.72;5078821;28;20677;-69
2023/05/15 06:06:11;;;;;;;28.27;14.32;;;;;;;9.47;53.45;101363.25;5081856;28;20063;-69
2023/05/15 06:08:36;;;;;;;25.90;13.40;;;;;;;9.49;53.48;101371.06;5079617;28;20139;-69
2023/05/15 06:11:02;;;;;;;28.38;14.70;;;;;;;9.50;53.08;101372.75;5079200;28;20040;-70
2023/05/15 06:13:27;;;;;;;29.70;15.32;;;;;;;9.73;53.10;101372.97;5079253;28;20108;-70
2023/05/15 06:15:53;;;;;;;28.15;15.85;;;;;;;9.40;53.22;101375.63;5080327;28;20042;-69
2023/05/15 06:18:18;;;;;;;27.08;16.35;;;;;;;9.28;53.52;101383.78;5083354;28;20195;-69
2023/05/15 06:20:45;;;;;;;27.45;15.50;;;;;;;9.05;54.28;101378.31;5082471;28;20028;-69
2023/05/15 06:23:11;;;;;;;25.35;15.35;;;;;;;9.09;54.14;101372.13;5083456;28;20403;-69
2023/05/15 06:25:36;;;;;;;29.08;16.10;;;;;;;9.85;52.92;101363.97;5079560;27;20035;-71
2023/05/15 06:28:02;;;;;;;31.58;17.10;;;;;;;9.99;52.66;101364.44;5098195;27;20131;-69
2023/05/15 06:30:27;;;;;;;27.98;15.85;;;;;;;9.78;52.13;101363.25;5088336;27;20138;-71
2023/05/15 06:32:53;;;;;;;28.27;14.75;;;;;;;9.76;52.00;101358.97;5083969;27;20083;-70
2023/05/15 06:35:18;;;;;;;25.00;14.15;;;;;;;9.14;53.33;101362.41;5085676;27;20166;-69
2023/05/15 06:37:48;;;;;;;24.25;13.73;;;;;;;9.71;52.29;101364.34;5066579;27;20055;-69
2023/05/15 06:40:14;;;;;;;28.55;15.25;;;;;;;9.92;51.63;101359.41;5083863;28;20049;-69
2023/05/15 06:42:40;;;;;;;26.48;15.57;;;;;;;10.06;51.71;101362.50;5082730;27;20044;-70
2023/05/15 06:45:06;;;;;;;30.15;17.75;;;;;;;10.06;51.12;101359.88;5086402;28;20745;-69
2023/05/15 06:47:31;;;;;;;28.55;15.43;;;;;;;10.07;51.80;101356.34;5082272;27;20032;-69
2023/05/15 06:49:57;;;;;;;29.83;16.42;;;;;;;10.20;51.53;101356.84;5065106;28;20625;-69
2023/05/15 06:52:22;;;;;;;30.38;15.88;;;;;;;10.07;51.57;101356.34;5083714;27;20046;-70
2023/05/15 06:54:47;;;;;;;31.55;16.15;;;;;;;10.04;51.78;101358.22;5084120;27;20032;-70
2023/05/15 06:57:13;;;;;;;31.98;15.93;;;;;;;10.13;51.03;101364.00;5084715;27;20043;-70
2023/05/15 06:59:38;;;;;;;34.22;15.57;;;;;;;10.14;51.56;101360.47;5087431;27;20032;-69
2023/05/15 07:02:06;;;;;;;32.08;17.38;;;;;;;10.45;51.27;101364.75;5087084;27;20035;-70
2023/05/15 07:04:31;;;;;;;30.55;16.40;;;;;;;10.44;50.76;101368.28;5083563;27;20027;-70
2023/05/15 07:06:57;;;;;;;31.55;16.63;;;;;;;10.66;50.41;101372.81;5083992;27;20028;-70
2023/05/15 07:09:23;;;;;;;31.33;18.00;;;;;;;10.82;50.07;101368.84;5088421;27;20036;-70
2023/05/15 07:11:48;;;;;;;28.98;16.15;;;;;;;11.03;48.73;101368.09;5081152;27;20031;-70
2023/05/15 07:14:14;;;;;;;31.30;18.27;;;;;;;11.48;47.18;101368.31;5082231;28;20035;-71
2023/05/15 07:16:39;;;;;;;35.65;18.58;;;;;;;11.40;47.15;101372.06;5079314;27;20126;-70
2023/05/15 07:19:07;;;;;;;35.53;18.83;;;;;;;11.24;48.22;101366.53;5082243;27;20081;-69
2023/05/15 07:21:32;;;;;;;32.63;18.63;;;;;;;11.32;48.62;101363.63;5068601;27;20754;-71
2023/05/15 07:23:57;;;;;;;36.08;19.92;;;;;;;11.24;49.11;101366.53;5081649;27;20031;-70
2023/05/15 07:26:23;;;;;;;36.53;19.05;;;;;;;11.39;48.88;101369.50;5083608;27;20038;-70
2023/05/15 07:28:48;;;;;;;33.80;18.85;;;;;;;11.09;48.81;101366.22;5083792;27;20043;-71
2023/05/15 07:31:14;;;;;;;27.45;17.00;;;;;;;11.22;48.36;101365.72;5085945;27;20042;-71
2023/05/15 07:33:39;;;;;;;28.50;17.02;;;;;;;11.08;49.41;101367.94;5085163;27;20046;-69
2023/05/15 07:36:05;;;;;;;23.40;15.98;;;;;;;11.42;48.31;101370.25;5084266;27;20070;-69
2023/05/15 07:38:31;;;;;;;28.35;15.90;;;;;;;11.51;47.75;101369.06;5081501;27;20039;-70
2023/05/15 07:40:56;;;;;;;20.50;15.35;;;;;;;11.45;47.42;101362.28;5098338;27;20035;-70
2023/05/15 07:43:21;;;;;;;23.58;15.10;;;;;;;11.68;46.69;101365.81;5078081;27;20199;-69
2023/05/15 07:45:47;;;;;;;21.75;15.52;;;;;;;11.45;47.57;101359.66;5084588;27;20043;-70
2023/05/15 07:48:14;;;;;;;20.73;14.50;;;;;;;11.03;47.85;101364.63;5082660;27;20042;-70
2023/05/15 07:50:40;;;;;;;23.77;14.57;;;;;;;11.37;48.40;101359.06;5099984;27;20035;-70
2023/05/15 07:53:05;;;;;;;25.77;16.70;;;;;;;11.34;47.78;101356.56;5062594;28;20047;-70
2023/05/15 07:55:31;;;;;;;27.30;15.70;;;;;;;11.67;47.44;101364.13;5079270;28;20024;-70
2023/05/15 07:57:56;;;;;;;24.58;15.05;;;;;;;11.70;47.56;101360.53;5088768;27;20134;-70
2023/05/15 08:00:22;;;;;;;29.95;16.27;;;;;;;11.72;47.75;101361.34;5082982;28;20028;-70
2023/05/15 08:02:47;;;;;;;26.45;15.63;;;;;;;11.81;47.44;101356.63;5082511;27;20145;-70
2023/05/15 08:05:13;;;;;;;25.42;14.05;;;;;;;11.94;46.34;101364.88;5080732;27;20036;-70
2023/05/15 08:07:38;;;;;;;21.77;15.15;;;;;;;12.50;45.53;101361.81;5081740;27;20051;-69
2023/05/15 08:10:05;;;;;;;23.83;14.63;;;;;;;12.22;45.82;101362.06;5083940;27;20040;-68
2023/05/15 08:12:30;;;;;;;17.20;13.15;;;;;;;12.45;46.34;101363.78;5082616;27;20131;-71
2023/05/15 08:14:56;;;;;;;23.55;13.95;;;;;;;12.50;44.70;101351.31;5080115;27;20041;-70
2023/05/15 08:17:23;;;;;;;17.52;12.30;;;;;;;13.88;42.94;101348.94;5081647;27;20035;-69
2023/05/15 08:19:48;;;;;;;19.00;12.70;;;;;;;14.65;39.09;101350.53;5083966;27;20356;-70
2023/05/15 08:22:14;;;;;;;24.25;12.55;;;;;;;14.90;40.19;101351.03;5077379;27;20491;-70
2023/05/15 08:24:40;;;;;;;16.77;12.25;;;;;;;14.48;40.21;101341.72;5082123;27;20468;-70
2023/05/15 08:27:07;;;;;;;18.08;12.00;;;;;;;14.55;40.34;101347.53;5083668;28;20036;-71
2023/05/15 08:29:34;;;;;;;19.05;13.02;;;;;;;15.41;38.80;101337.88;5096505;27;20036;-70
2023/05/15 08:32:00;;;;;;;19.10;13.90;;;;;;;15.31;39.06;101342.78;5084689;27;20040;-71
2023/05/15 08:34:26;;;;;;;21.13;13.75;;;;;;;14.96;39.43;101337.53;5079902;27;20039;-71
2023/05/15 08:36:51;;;;;;;21.77;14.35;;;;;;;16.63;36.27;101343.41;5082912;27;20119;-70
2023/05/15 08:39:17;;;;;;;21.35;12.40;;;;;;;18.51;34.04;101330.97;5080489;28;20373;-69
2023/05/15 08:42:07;;;;;;;19.58;12.35;;;;;;;19.32;32.43;101321.94;5084517;27;20035;-70
2023/05/15 08:44:33;;;;;;;25.27;12.52;;;;;;;18.39;34.00;101330.84;5080979;27;20036;-69
2023/05/15 08:46:59;;;;;;;18.25;12.60;;;;;;;17.97;33.92;101331.81;5082471;27;20057;-71
2023/05/15 08:49:59;;;;;;;20.65;14.18;;;;;;;16.34;35.35;101334.53;5081850;27;20047;-71
2023/05/15 08:52:25;;;;;;;19.65;13.50;;;;;;;16.53;35.24;101330.84;5077286;27;20059;-70
2023/05/15 08:54:52;;;;;;;18.10;12.70;;;;;;;18.05;33.72;101319.78;5083688;27;20134;-69
2023/05/15 08:57:18;;;;;;;18.45;12.02;;;;;;;19.20;31.38;101318.38;5082996;28;20062;-71
2023/05/15 08:59:45;;;;;;;17.80;11.55;;;;;;;18.83;30.81;101310.25;5080918;27;20031;-70
2023/05/15 09:02:10;;;;;;;14.52;11.45;;;;;;;17.92;33.81;101313.59;5083881;27;20135;-71
2023/05/15 09:04:36;;;;;;;17.80;11.27;;;;;;;17.37;34.11;101317.03;5078628;28;20033;-71
2023/05/15 09:07:02;;;;;;;21.42;12.98;;;;;;;17.67;33.38;101314.31;5082674;27;20492;-70
2023/05/15 09:09:31;;;;;;;16.08;12.25;;;;;;;17.74;34.32;101309.47;5080429;27;20211;-71
2023/05/15 09:11:58;;;;;;;15.65;11.32;;;;;;;17.33;34.41;101312.88;5085755;27;20035;-71
2023/05/15 09:14:23;;;;;;;14.75;10.18;;;;;;;17.52;34.70;101313.47;5077306;27;20032;-71
2023/05/15 09:16:52;;;;;;;13.00;10.60;;;;;;;17.96;34.80;101315.09;5097061;27;20031;-72
2023/05/15 09:19:19;;;;;;;12.60;10.27;;;;;;;16.04;37.17;101317.81;5079903;28;20026;-71
2023/05/15 09:21:44;;;;;;;13.63;9.98;;;;;;;16.57;36.11;101317.38;5079670;27;20042;-70
2023/05/15 09:24:22;;;;;;;12.45;9.48;;;;;;;16.51;36.21;101316.88;5085900;28;20027;-70
2023/05/15 09:27:01;;;;;;;17.15;9.85;;;;;;;16.17;37.12;101318.81;5083228;28;20544;-71
2023/05/15 09:29:28;;;;;;;11.10;8.27;;;;;;;16.37;37.16;101315.88;5066843;27;20044;-70
2023/05/15 09:31:54;;;;;;;14.15;9.75;;;;;;;17.06;35.99;101305.72;5080550;28;20043;-71
2023/05/15 09:34:29;;;;;;;12.30;9.85;;;;;;;16.53;36.59;101322.91;5079538;28;20061;-70
2023/05/15 09:36:55;;;;;;;11.88;8.40;;;;;;;16.25;36.60;101321.03;5085984;27;20563;-70
2023/05/15 09:39:23;;;;;;;14.32;8.38;;;;;;;16.79;35.64;101319.63;5081807;28;20038;-71
2023/05/15 09:41:49;;;;;;;9.48;7.07;;;;;;;16.96;35.42;101320.44;5079110;28;20031;-71
2023/05/15 09:44:23;;;;;;;9.60;7.28;;;;;;;17.20;34.53;101318.94;5080979;27;20053;-73
2023/05/15 09:46:49;;;;;;;8.80;7.45;;;;;;;16.90;34.36;101318.16;5081515;28;20104;-73
2023/05/15 09:49:17;;;;;;;7.85;6.57;;;;;;;16.25;35.17;101324.50;5068589;28;20496;-72
2023/05/15 09:51:44;;;;;;;7.25;5.93;;;;;;;17.06;35.23;101318.91;5078909;28;20031;-72
2023/05/15 09:54:15;;;;;;;9.40;6.50;;;;;;;17.26;35.83;101316.88;5082002;28;20047;-70
2023/05/15 09:56:42;;;;;;;8.15;5.40;;;;;;;17.61;34.40;101312.91;5076714;28;20051;-71
2023/05/15 09:59:13;;;;;;;8.20;6.68;;;;;;;16.96;36.67;101315.16;5084147;28;20122;-70
2023/05/15 10:01:42;;;;;;;6.93;5.57;;;;;;;17.47;33.58;101309.38;5080232;27;20066;-71
2023/05/15 10:04:08;;;;;;;7.22;5.57;;;;;;;16.86;35.08;101314.00;5082479;27;20082;-73
2023/05/15 10:06:35;;;;;;;7.63;5.55;;;;;;;16.93;35.46;101317.97;5083746;27;20142;-72
2023/05/15 10:09:02;;;;;;;6.88;4.97;;;;;;;17.08;34.57;101305.63;5087408;27;20048;-71
2023/05/15 10:11:30;;;;;;;7.28;4.93;;;;;;;17.19;34.33;101309.31;5087682;27;20032;-71
2023/05/15 10:13:57;;;;;;;9.18;4.30;;;;;;;17.48;34.32;101308.50;5081772;27;20594;-70
2023/05/15 10:16:24;;;;;;;7.53;4.57;;;;;;;16.73;34.96;101308.56;5083325;27;20035;-73
2023/05/15 10:18:51;;;;;;;8.07;4.13;;;;;;;16.62;36.94;101310.06;5083848;27;20086;-73
2023/05/15 10:21:19;;;;;;;6.43;4.18;;;;;;;16.78;36.35;101303.91;5082767;27;20058;-71
2023/05/15 10:23:48;;;;;;;5.50;4.80;;;;;;;17.24;34.77;101309.03;5097944;27;20054;-71
2023/05/15 10:26:31;;;;;;;7.80;4.60;;;;;;;16.79;36.10;101314.34;5086540;27;20035;-72
2023/05/15 10:28:58;;;;;;;6.75;4.28;;;;;;;16.93;35.73;101310.03;5084452;27;20039;-73
2023/05/15 10:31:25;;;;;;;5.68;3.65;;;;;;;16.07;36.34;101317.66;5086032;27;20530;-72
2023/05/15 10:33:50;;;;;;;5.40;4.35;;;;;;;15.91;36.78;101318.47;5082321;27;20287;-73
2023/05/15 10:36:18;;;;;;;7.40;4.93;;;;;;;16.07;36.78;101312.38;5084310;28;20559;-72
2023/05/15 10:38:45;;;;;;;10.57;4.20;;;;;;;16.92;37.94;101311.84;5081798;27;20081;-73
2023/05/15 10:41:15;;;;;;;5.47;4.40;;;;;;;17.54;34.71;101308.97;5072186;28;20024;-72
2023/05/15 10:43:41;;;;;;;5.97;4.00;;;;;;;18.10;33.53;101310.72;5083029;27;20040;-72
2023/05/15 10:46:07;;;;;;;5.35;4.60;;;;;;;17.43;33.41;101308.75;5082791;27;20035;-73
2023/05/15 10:48:34;;;;;;;7.25;5.43;;;;;;;17.12;35.62;101310.63;5083136;27;20347;-72
2023/05/15 10:51:00;;;;;;;6.47;5.40;;;;;;;16.76;36.23;101309.25;5086581;27;20155;-72
2023/05/15 10:53:26;;;;;;;5.90;4.68;;;;;;;16.95;35.85;101300.22;5081358;27;20965;-72
2023/05/15 10:55:52;;;;;;;7.10;5.13;;;;;;;16.86;35.35;101300.78;5085429;27;20097;-73
2023/05/15 10:58:22;;;;;;;7.47;4.90;;;;;;;16.96;36.04;101315.16;5085449;27;20044;-73
2023/05/15 11:00:47;;;;;;;6.05;5.43;;;;;;;16.42;36.02;101308.56;5083591;27;20523;-70
2023/05/15 11:03:35;;;;;;;6.03;5.05;;;;;;;16.97;36.02;101315.03;5083672;27;20155;-73
2023/05/15 11:06:11;;;;;;;7.43;5.32;;;;;;;16.17;36.46;101308.28;5087050;27;20228;-71
2023/05/15 11:08:41;;;;;;;8.02;5.82;;;;;;;15.51;37.69;101304.84;5082201;27;20039;-71
2023/05/15 11:11:07;;;;;;;8.52;4.75;;;;;;;16.52;36.77;101311.50;5086577;27;20792;-71
2023/05/15 11:14:04;;;;;;;6.85;4.68;;;;;;;16.57;35.28;101311.25;5081089;27;20241;-69
2023/05/15 11:16:51;;;;;;;6.22;5.63;;;;;;;16.89;35.54;101304.09;5085255;27;20032;-71
2023/05/15 11:19:38;;;;;;;5.68;4.65;;;;;;;16.80;35.76;101305.50;5067870;28;20040;-71